createdAt,value
2023-02-12T00:00:45.108Z,37.30
2023-02-12T00:02:50.732Z,38.35
2023-02-12T00:04:55.824Z,36.25
2023-02-12T00:07:00.986Z,38.80
2023-02-12T00:09:06.875Z,37.45
2023-02-12T00:11:19.001Z,36.35
2023-02-12T00:13:23.966Z,39.55
2023-02-12T00:15:29.201Z,38.42
2023-02-12T00:17:34.135Z,37.78
2023-02-12T00:19:39.568Z,36.00
2023-02-12T00:21:44.459Z,36.63
2023-02-12T00:23:49.712Z,37.00
2023-02-12T00:25:55.225Z,37.95
2023-02-12T00:28:03.210Z,35.90
2023-02-12T00:30:10.552Z,38.03
2023-02-12T00:32:19.451Z,34.25
2023-02-12T00:34:24.353Z,33.75
2023-02-12T00:36:32.188Z,37.15
2023-02-12T00:38:38.152Z,36.10
2023-02-12T00:40:43.081Z,35.80
2023-02-12T00:42:48.422Z,34.58
2023-02-12T00:44:55.864Z,35.35
2023-02-12T00:47:02.764Z,34.08
2023-02-12T00:49:07.686Z,35.95
2023-02-12T00:51:14.114Z,33.75
2023-02-12T00:53:19.821Z,33.42
2023-02-12T00:55:25.011Z,32.97
2023-02-12T00:57:30.678Z,34.78
2023-02-12T00:59:36.810Z,34.05
2023-02-12T01:01:44.795Z,34.78
2023-02-12T01:03:49.739Z,32.17
2023-02-12T01:05:55.177Z,32.03
2023-02-12T01:08:00.361Z,34.38
2023-02-12T01:10:05.635Z,31.27
2023-02-12T01:12:13.807Z,31.60
2023-02-12T01:14:18.723Z,32.40
2023-02-12T01:16:27.811Z,31.85
2023-02-12T01:18:37.162Z,31.70
2023-02-12T01:20:43.116Z,32.53
2023-02-12T01:22:48.231Z,32.30
2023-02-12T01:24:53.199Z,30.08
2023-02-12T01:26:58.097Z,30.02
2023-02-12T01:29:06.402Z,30.30
2023-02-12T01:31:13.577Z,29.50
2023-02-12T01:33:18.694Z,32.88
2023-02-12T01:35:26.532Z,32.17
2023-02-12T01:37:31.837Z,30.30
2023-02-12T01:39:36.885Z,28.73
2023-02-12T01:41:45.520Z,29.08
2023-02-12T01:44:15.541Z,28.70
2023-02-12T01:46:20.483Z,27.15
2023-02-12T01:48:28.595Z,29.02
2023-02-12T01:50:36.692Z,27.17
2023-02-12T01:52:49.280Z,29.17
2023-02-12T01:54:57.301Z,27.73
2023-02-12T01:57:03.274Z,26.23
2023-02-12T01:59:09.106Z,26.58
2023-02-12T02:01:21.003Z,25.25
2023-02-12T02:03:26.179Z,26.88
2023-02-12T02:05:45.138Z,27.75
2023-02-12T02:07:50.174Z,26.30
2023-02-12T02:09:55.666Z,26.10
2023-02-12T02:12:13.404Z,26.75
2023-02-12T02:14:30.820Z,29.27
2023-02-12T02:16:39.683Z,28.33
2023-02-12T02:18:48.893Z,27.73
2023-02-12T02:21:48.700Z,27.77
2023-02-12T02:24:28.946Z,27.80
2023-02-12T02:27:25.857Z,26.65
2023-02-12T02:30:15.046Z,27.35
2023-02-12T02:32:26.281Z,27.42
2023-02-12T02:34:41.243Z,25.52
2023-02-12T02:37:00.528Z,26.20
2023-02-12T02:39:11.812Z,25.33
2023-02-12T02:41:23.838Z,24.83
2023-02-12T02:43:36.054Z,23.83
2023-02-12T02:45:49.275Z,25.77
2023-02-12T02:50:10.584Z,25.45
2023-02-12T02:52:21.796Z,22.63
2023-02-12T02:54:33.546Z,24.20
2023-02-12T02:56:45.164Z,25.50
2023-02-12T02:58:55.860Z,24.10
2023-02-12T03:01:08.142Z,22.63
2023-02-12T03:03:22.828Z,18.15
2023-02-12T03:05:34.032Z,23.00
2023-02-12T03:07:45.069Z,22.63
2023-02-12T03:09:56.912Z,24.00
2023-02-12T03:12:07.657Z,23.02
2023-02-12T03:14:19.018Z,22.85
2023-02-12T03:16:30.777Z,22.77
2023-02-12T03:18:42.985Z,23.67
2023-02-12T03:20:54.020Z,22.65
2023-02-12T03:23:04.773Z,22.77
2023-02-12T03:25:17.522Z,23.20
2023-02-12T03:27:29.924Z,21.40
2023-02-12T03:29:35.571Z,21.08
2023-02-12T03:32:02.485Z,21.23
2023-02-12T03:34:18.185Z,20.95
2023-02-12T03:36:35.110Z,20.20
2023-02-12T03:38:45.549Z,20.85
2023-02-12T03:40:56.508Z,22.20
2023-02-12T03:43:07.877Z,22.60
2023-02-12T03:45:25.684Z,16.80
2023-02-12T03:47:46.716Z,21.75
2023-02-12T03:50:05.349Z,21.73
2023-02-12T03:52:10.447Z,20.63
2023-02-12T03:54:19.341Z,18.58
2023-02-12T03:56:31.371Z,21.90
2023-02-12T03:58:40.376Z,21.42
2023-02-12T04:00:48.882Z,21.25
2023-02-12T04:02:58.172Z,21.65
2023-02-12T04:05:08.405Z,21.85
2023-02-12T04:07:14.455Z,21.02
2023-02-12T04:09:21.222Z,22.05
2023-02-12T04:11:36.780Z,20.20
2023-02-12T04:13:53.232Z,20.50
2023-02-12T04:16:16.566Z,23.50
2023-02-12T04:18:34.173Z,22.17
2023-02-12T04:20:55.835Z,24.27
2023-02-12T04:23:14.328Z,22.02
2023-02-12T04:25:43.947Z,24.98
2023-02-12T04:27:59.215Z,23.40
2023-02-12T04:30:10.077Z,22.52
2023-02-12T04:32:21.263Z,20.88
2023-02-12T04:34:37.257Z,21.30
2023-02-12T04:36:52.641Z,19.50
2023-02-12T04:39:03.719Z,19.23
2023-02-12T04:41:09.524Z,21.23
2023-02-12T04:43:14.480Z,22.55
2023-02-12T04:45:24.644Z,22.50
2023-02-12T04:47:30.037Z,27.65
2023-02-12T04:49:37.515Z,26.00
2023-02-12T04:51:42.386Z,25.10
2023-02-12T04:53:47.691Z,25.58
2023-02-12T04:55:52.872Z,25.92
2023-02-12T04:57:57.960Z,27.00
2023-02-12T05:00:05.043Z,25.50
2023-02-12T05:02:10.459Z,25.70
2023-02-12T05:04:17.812Z,28.20
2023-02-12T05:06:25.275Z,28.05
2023-02-12T05:08:30.629Z,25.92
2023-02-12T05:10:35.518Z,26.23
2023-02-12T05:12:40.400Z,26.23
2023-02-12T05:14:45.850Z,25.35
2023-02-12T05:16:50.728Z,26.17
2023-02-12T05:18:55.606Z,28.00
2023-02-12T05:21:01.423Z,26.73
2023-02-12T05:23:09.358Z,25.98
2023-02-12T05:25:14.388Z,26.30
2023-02-12T05:27:19.242Z,25.73
2023-02-12T05:29:24.725Z,26.23
2023-02-12T05:31:29.882Z,25.08
2023-02-12T05:33:35.672Z,25.98
2023-02-12T05:35:40.504Z,26.52
2023-02-12T05:37:46.038Z,25.75
2023-02-12T05:39:54.675Z,26.30
2023-02-12T05:41:59.549Z,26.70
2023-02-12T05:44:05.629Z,24.95
2023-02-12T05:46:11.575Z,26.55
2023-02-12T05:48:17.281Z,25.17
2023-02-12T05:50:23.074Z,24.98
2023-02-12T05:52:37.793Z,24.20
2023-02-12T05:54:42.666Z,25.00
2023-02-12T05:56:51.222Z,24.23
2023-02-12T05:59:00.016Z,25.60
2023-02-12T06:01:04.923Z,26.17
2023-02-12T06:03:09.751Z,25.80
2023-02-12T06:05:15.139Z,26.73
2023-02-12T06:07:20.016Z,25.48
2023-02-12T06:09:26.217Z,25.88
2023-02-12T06:11:31.571Z,27.20
2023-02-12T06:13:39.148Z,25.88
2023-02-12T06:15:43.988Z,26.67
2023-02-12T06:17:49.421Z,25.83
2023-02-12T06:19:54.243Z,27.63
2023-02-12T06:21:59.081Z,23.60
2023-02-12T06:24:04.776Z,26.30
2023-02-12T06:26:09.840Z,25.02
2023-02-12T06:28:14.685Z,26.80
2023-02-12T06:30:22.945Z,26.77
2023-02-12T06:32:27.926Z,26.38
2023-02-12T06:34:32.783Z,29.15
2023-02-12T06:36:40.288Z,27.30
2023-02-12T06:38:45.428Z,26.50
2023-02-12T06:40:50.297Z,27.80
2023-02-12T06:42:55.123Z,26.73
2023-02-12T06:44:59.945Z,28.52
2023-02-12T06:47:07.569Z,26.77
2023-02-12T06:49:16.662Z,28.10
2023-02-12T06:51:23.528Z,25.73
2023-02-12T06:53:28.540Z,27.38
2023-02-12T06:55:33.424Z,26.30
2023-02-12T06:57:38.472Z,27.98
2023-02-12T06:59:43.340Z,26.33
2023-02-12T07:01:48.215Z,26.63
2023-02-12T07:03:58.255Z,28.58
2023-02-12T07:06:03.101Z,28.08
2023-02-12T07:08:07.939Z,27.23
2023-02-12T07:10:13.725Z,27.90
2023-02-12T07:12:18.696Z,26.63
2023-02-12T07:14:23.528Z,25.98
2023-02-12T07:16:28.917Z,25.98
2023-02-12T07:18:33.829Z,26.35
2023-02-12T07:20:41.289Z,26.33
2023-02-12T07:22:46.189Z,25.10
2023-02-12T07:24:51.938Z,25.63
2023-02-12T07:26:56.851Z,27.70
2023-02-12T07:29:01.955Z,28.23
2023-02-12T07:31:11.703Z,28.75
2023-02-12T07:33:16.610Z,28.88
2023-02-12T07:35:21.666Z,28.65
2023-02-12T07:37:29.163Z,28.90
2023-02-12T07:39:33.994Z,32.67
2023-02-12T07:41:40.196Z,30.88
2023-02-12T07:43:47.737Z,31.58
2023-02-12T07:45:53.283Z,32.08
2023-02-12T07:47:58.961Z,29.52
2023-02-12T07:50:03.860Z,30.73
2023-02-12T07:52:09.084Z,30.30
2023-02-12T07:54:19.094Z,31.42
2023-02-12T07:56:29.579Z,32.30
2023-02-12T07:58:34.498Z,30.45
2023-02-12T08:00:40.377Z,30.75
2023-02-12T08:02:45.380Z,31.73
2023-02-12T08:04:50.573Z,31.92
2023-02-12T08:06:58.631Z,30.33
2023-02-12T08:09:07.089Z,32.10
2023-02-12T08:11:18.522Z,30.67
2023-02-12T08:13:23.346Z,33.55
2023-02-12T08:15:28.785Z,30.55
2023-02-12T08:17:34.700Z,31.60
2023-02-12T08:19:39.837Z,32.38
2023-02-12T08:21:45.068Z,30.48
2023-02-12T08:23:52.129Z,32.53
2023-02-12T08:25:57.340Z,33.80
2023-02-12T08:28:04.985Z,31.83
2023-02-12T08:30:15.387Z,32.50
2023-02-12T08:32:20.394Z,31.63
2023-02-12T08:34:27.989Z,30.92
2023-02-12T08:36:39.400Z,34.53
2023-02-12T08:38:46.828Z,31.85
2023-02-12T08:40:51.684Z,30.88
2023-02-12T08:42:56.534Z,32.75
2023-02-12T08:45:04.007Z,32.05
2023-02-12T08:47:10.181Z,31.23
2023-02-12T08:49:18.412Z,31.10
2023-02-12T08:51:26.245Z,31.27
2023-02-12T08:53:31.077Z,31.00
2023-02-12T08:55:36.950Z,29.02
2023-02-12T08:57:41.996Z,33.50
2023-02-12T08:59:47.310Z,30.38
2023-02-12T09:01:56.691Z,32.97
2023-02-12T09:04:02.420Z,30.65
2023-02-12T09:06:10.426Z,31.35
2023-02-12T09:08:15.279Z,30.80
2023-02-12T09:10:20.708Z,30.65
2023-02-12T09:12:26.175Z,32.10
2023-02-12T09:14:31.146Z,32.33
2023-02-12T09:16:40.427Z,32.05
2023-02-12T09:18:48.451Z,30.10
2023-02-12T09:20:53.524Z,30.95
2023-02-12T09:22:58.372Z,29.55
2023-02-12T09:25:03.423Z,28.85
2023-02-12T09:27:08.254Z,29.77
2023-02-12T09:29:13.078Z,30.25
2023-02-12T09:31:21.061Z,28.95
2023-02-12T09:33:26.055Z,29.10
2023-02-12T09:35:33.812Z,28.38
2023-02-12T09:37:39.161Z,30.83
2023-02-12T09:39:45.014Z,30.00
2023-02-12T09:42:24.021Z,28.27
2023-02-12T09:44:39.141Z,27.50
2023-02-12T09:46:52.465Z,27.95
2023-02-12T09:51:12.616Z,33.92
2023-02-12T09:53:22.614Z,28.73
2023-02-12T09:55:32.620Z,28.45
2023-02-12T09:57:40.217Z,29.55
2023-02-12T09:59:51.947Z,28.70
2023-02-12T10:01:56.849Z,26.38
2023-02-12T10:04:02.961Z,27.83
2023-02-12T10:06:16.823Z,27.08
2023-02-12T10:08:46.413Z,26.00
2023-02-12T10:10:56.607Z,26.52
2023-02-12T10:13:07.494Z,25.35
2023-02-12T10:15:29.796Z,27.50
2023-02-12T10:17:45.286Z,25.73
2023-02-12T10:20:40.343Z,24.83
2023-02-12T10:23:03.153Z,24.25
2023-02-12T10:25:21.023Z,23.42
2023-02-12T10:27:39.734Z,24.40
2023-02-12T10:29:47.706Z,24.05
2023-02-12T10:34:26.501Z,24.40
2023-02-12T10:36:44.294Z,27.10
2023-02-12T10:38:58.189Z,23.30
2023-02-12T10:41:03.419Z,26.33
2023-02-12T10:43:10.330Z,25.75
2023-02-12T10:45:18.050Z,22.30
2023-02-12T10:47:27.444Z,21.13
2023-02-12T10:49:35.367Z,21.75
2023-02-12T10:51:57.398Z,23.02
2023-02-12T10:54:44.106Z,21.23
2023-02-12T10:56:49.079Z,20.08
2023-02-12T10:59:00.533Z,20.88
2023-02-12T11:01:06.954Z,21.42
2023-02-12T11:03:25.166Z,21.35
2023-02-12T11:05:35.630Z,22.85
2023-02-12T11:07:52.650Z,21.27
2023-02-12T11:10:00.602Z,20.85
2023-02-12T11:12:06.680Z,18.30
2023-02-12T11:14:22.864Z,17.23
2023-02-12T11:16:33.662Z,17.77
2023-02-12T11:18:39.916Z,18.23
2023-02-12T11:20:54.033Z,17.05
2023-02-12T11:23:03.353Z,16.90
2023-02-12T11:25:19.680Z,17.27
2023-02-12T11:27:32.890Z,17.17
2023-02-12T11:31:43.033Z,16.85
2023-02-12T11:33:48.253Z,17.30
2023-02-12T11:36:00.941Z,18.20
2023-02-12T11:38:07.470Z,16.27
2023-02-12T11:40:23.838Z,16.95
2023-02-12T11:42:33.543Z,16.33
2023-02-12T11:44:42.645Z,15.45
2023-02-12T11:46:52.227Z,14.57
2023-02-12T11:49:01.301Z,14.48
2023-02-12T11:51:10.099Z,14.15
2023-02-12T11:53:25.589Z,16.10
2023-02-12T11:55:37.630Z,16.98
2023-02-12T11:57:48.681Z,16.08
2023-02-12T11:59:54.921Z,16.85
2023-02-12T12:02:05.251Z,17.73
2023-02-12T12:04:15.593Z,16.40
2023-02-12T12:06:35.316Z,10.68
2023-02-12T12:08:46.889Z,15.98
2023-02-12T12:11:03.793Z,15.15
2023-02-12T12:13:15.800Z,17.13
2023-02-12T12:15:38.953Z,13.88
2023-02-12T12:18:02.555Z,6.85
2023-02-12T12:22:41.196Z,8.63
2023-02-12T12:24:54.579Z,10.48
2023-02-12T12:27:14.330Z,11.10
2023-02-12T12:29:26.926Z,6.45
2023-02-12T12:31:38.572Z,5.53
2023-02-12T12:33:49.652Z,6.53
2023-02-12T12:36:15.383Z,5.93
2023-02-12T12:38:33.748Z,8.25
2023-02-12T12:40:55.510Z,11.05
2023-02-12T12:43:15.631Z,15.38
2023-02-12T12:45:50.929Z,16.27
2023-02-12T12:48:12.861Z,14.15
2023-02-12T12:50:38.457Z,15.80
2023-02-12T12:53:06.867Z,16.63
2023-02-12T12:55:39.081Z,15.38
2023-02-12T12:57:59.107Z,14.05
2023-02-12T13:00:36.365Z,14.30
2023-02-12T13:03:29.261Z,14.85
2023-02-12T13:06:01.595Z,15.25
2023-02-12T13:08:16.904Z,14.13
2023-02-12T13:10:35.543Z,12.32
2023-02-12T13:13:03.907Z,13.00
2023-02-12T13:15:21.450Z,13.50
2023-02-12T13:17:34.523Z,14.57
2023-02-12T13:19:55.006Z,19.92
2023-02-12T13:22:11.131Z,30.10
2023-02-12T13:24:29.513Z,19.67
2023-02-12T13:26:52.813Z,17.42
2023-02-12T13:29:04.996Z,13.07
2023-02-12T13:31:33.700Z,7.88
2023-02-12T13:33:47.710Z,8.05
2023-02-12T13:35:59.490Z,7.70
2023-02-12T13:38:09.433Z,10.77
2023-02-12T13:40:20.636Z,10.10
2023-02-12T13:42:50.830Z,6.38
2023-02-12T13:45:10.386Z,6.60
2023-02-12T13:47:24.025Z,7.30
2023-02-12T13:49:44.783Z,6.90
2023-02-12T13:51:53.224Z,7.80
2023-02-12T13:54:26.185Z,8.07
2023-02-12T13:56:43.074Z,8.90
2023-02-12T13:58:55.892Z,8.70
2023-02-12T14:01:03.795Z,8.45
2023-02-12T14:03:12.746Z,9.05
2023-02-12T14:05:33.627Z,11.00
2023-02-12T14:07:49.251Z,20.25
2023-02-12T14:10:08.031Z,14.95
2023-02-12T14:12:18.040Z,14.25
2023-02-12T14:14:30.703Z,20.20
2023-02-12T14:16:43.489Z,16.75
2023-02-12T14:18:48.397Z,18.08
2023-02-12T14:21:42.391Z,24.17
2023-02-12T14:23:47.895Z,8.50
2023-02-12T14:26:05.363Z,7.18
2023-02-12T14:28:29.088Z,7.35
2023-02-12T14:30:40.327Z,8.18
2023-02-12T14:33:11.612Z,8.95
2023-02-12T14:35:35.806Z,8.10
2023-02-12T14:37:43.273Z,7.55
2023-02-12T14:39:48.329Z,7.85
2023-02-12T14:41:57.276Z,10.35
2023-02-12T14:44:47.394Z,10.43
2023-02-12T14:46:54.949Z,9.85
2023-02-12T14:49:05.663Z,12.30
2023-02-12T14:51:22.752Z,8.57
2023-02-12T14:53:35.648Z,14.20
2023-02-12T14:55:44.649Z,11.43
2023-02-12T14:57:50.527Z,13.57
2023-02-12T15:00:00.697Z,13.65
2023-02-12T15:02:06.783Z,11.30
2023-02-12T15:04:20.260Z,7.97
2023-02-12T15:06:32.739Z,7.10
2023-02-12T15:08:49.602Z,6.95
2023-02-12T15:11:02.759Z,9.63
2023-02-12T15:13:26.215Z,8.73
2023-02-12T15:15:37.461Z,9.63
2023-02-12T15:17:48.436Z,7.85
2023-02-12T15:20:02.148Z,8.98
2023-02-12T15:22:15.359Z,7.90
2023-02-12T15:26:36.808Z,8.52
2023-02-12T15:28:43.551Z,9.15
2023-02-12T15:30:49.402Z,8.65
2023-02-12T15:32:54.791Z,9.98
2023-02-12T15:35:00.114Z,23.27
2023-02-12T15:37:08.655Z,25.05
2023-02-12T15:39:23.035Z,14.73
2023-02-12T15:41:41.885Z,19.50
2023-02-12T15:43:47.327Z,16.50
2023-02-12T15:45:55.553Z,9.15
2023-02-12T15:48:13.063Z,8.55
2023-02-12T15:50:19.720Z,8.65
2023-02-12T15:52:34.614Z,7.95
2023-02-12T15:54:40.441Z,8.13
2023-02-12T15:56:48.465Z,7.22
2023-02-12T15:58:55.579Z,8.45
2023-02-12T16:01:06.166Z,8.75
2023-02-12T16:03:25.840Z,8.50
2023-02-12T16:05:31.975Z,8.13
2023-02-12T16:07:39.929Z,8.02
2023-02-12T16:09:45.897Z,9.20
2023-02-12T16:11:53.537Z,8.02
2023-02-12T16:14:03.090Z,8.25
2023-02-12T16:16:18.617Z,8.98
2023-02-12T16:18:28.743Z,8.63
2023-02-12T16:20:34.981Z,9.10
2023-02-12T16:22:42.914Z,8.75
2023-02-12T16:24:53.050Z,9.05
2023-02-12T16:27:03.718Z,8.57
2023-02-12T16:29:08.718Z,8.23
2023-02-12T16:31:17.286Z,8.30
2023-02-12T16:33:37.114Z,8.32
2023-02-12T16:35:43.022Z,8.65
2023-02-12T16:37:51.291Z,8.88
2023-02-12T16:40:26.692Z,8.27
2023-02-12T16:42:34.780Z,8.25
2023-02-12T16:44:39.643Z,9.48
2023-02-12T16:46:50.705Z,9.02
2023-02-12T16:48:59.464Z,9.48
2023-02-12T16:51:06.294Z,8.70
2023-02-12T16:53:43.111Z,10.20
2023-02-12T16:55:48.056Z,9.45
2023-02-12T16:57:55.555Z,9.50
2023-02-12T17:00:00.422Z,9.15
2023-02-12T17:02:13.056Z,10.13
2023-02-12T17:04:18.979Z,10.18
2023-02-12T17:06:27.638Z,9.88
2023-02-12T17:08:32.594Z,9.50
2023-02-12T17:10:37.474Z,10.05
2023-02-12T17:12:48.710Z,10.15
2023-02-12T17:14:57.179Z,10.00
2023-02-12T17:17:02.136Z,9.63
2023-02-12T17:19:07.044Z,10.93
2023-02-12T17:21:22.899Z,10.18
2023-02-12T17:23:28.950Z,10.13
2023-02-12T17:25:36.206Z,10.20
2023-02-12T17:27:41.399Z,9.55
2023-02-12T17:29:46.550Z,9.52
2023-02-12T17:31:55.995Z,9.88
2023-02-12T17:34:01.701Z,10.73
2023-02-12T17:36:07.634Z,11.52
2023-02-12T17:38:12.686Z,10.98
2023-02-12T17:40:18.102Z,10.80
2023-02-12T17:42:23.062Z,10.35
2023-02-12T17:44:28.094Z,11.57
2023-02-12T17:46:33.908Z,11.80
2023-02-12T17:48:41.369Z,10.57
2023-02-12T17:50:46.950Z,10.63
2023-02-12T17:52:52.033Z,12.05
2023-02-12T17:54:56.911Z,10.13
2023-02-12T17:57:01.866Z,10.15
2023-02-12T17:59:07.248Z,11.68
2023-02-12T18:01:14.961Z,12.18
2023-02-12T18:03:20.105Z,12.90
2023-02-12T18:05:27.800Z,10.52
2023-02-12T18:07:36.363Z,10.65
2023-02-12T18:09:41.338Z,9.55
2023-02-12T18:11:46.472Z,9.68
2023-02-12T18:13:55.722Z,9.85
2023-02-12T18:16:01.359Z,10.45
2023-02-12T18:18:06.800Z,9.85
2023-02-12T18:20:14.134Z,10.25
2023-02-12T18:22:22.179Z,10.93
2023-02-12T18:24:27.099Z,12.85
2023-02-12T18:26:31.985Z,10.68
2023-02-12T18:28:37.432Z,10.88
2023-02-12T18:30:43.816Z,9.93
2023-02-12T18:32:48.863Z,9.18
2023-02-12T18:34:54.080Z,9.65
2023-02-12T18:36:58.955Z,11.32
2023-02-12T18:39:07.125Z,9.63
2023-02-12T18:41:15.205Z,9.10
2023-02-12T18:43:20.051Z,9.10
2023-02-12T18:45:24.995Z,9.52
2023-02-12T18:47:29.895Z,8.95
2023-02-12T18:49:34.787Z,9.88
2023-02-12T18:51:41.078Z,9.35
2023-02-12T18:53:46.612Z,10.07
2023-02-12T18:55:54.261Z,9.38
2023-02-12T18:57:59.151Z,10.00
2023-02-12T19:02:41.558Z,9.68
2023-02-12T19:04:46.672Z,10.13
2023-02-12T19:06:53.717Z,11.73
2023-02-12T19:08:59.145Z,11.27
2023-02-12T19:11:08.880Z,11.27
2023-02-12T19:13:14.104Z,11.13
2023-02-12T19:15:20.131Z,12.95
2023-02-12T19:17:25.057Z,14.25
2023-02-12T19:19:32.510Z,13.15
2023-02-12T19:21:39.513Z,13.48
2023-02-12T19:23:44.936Z,11.85
2023-02-12T19:25:49.874Z,12.63
2023-02-12T19:27:58.623Z,12.52
2023-02-12T19:30:04.334Z,12.50
2023-02-12T19:32:10.722Z,12.93
2023-02-12T19:34:20.489Z,12.93
2023-02-12T19:36:26.277Z,11.07
2023-02-12T19:38:31.840Z,12.50
2023-02-12T19:40:36.787Z,12.13
2023-02-12T19:42:41.773Z,13.02
2023-02-12T19:44:49.356Z,13.05
2023-02-12T19:46:56.545Z,12.82
2023-02-12T19:49:04.942Z,10.50
2023-02-12T19:51:11.564Z,12.27
2023-02-12T19:53:16.477Z,11.18
2023-02-12T19:55:21.402Z,10.65
2023-02-12T19:57:26.328Z,11.73
2023-02-12T19:59:32.158Z,11.90
2023-02-12T20:01:39.882Z,10.93
2023-02-12T20:03:45.887Z,10.48
2023-02-12T20:05:53.319Z,11.43
2023-02-12T20:07:58.278Z,12.00
2023-02-12T20:10:03.283Z,12.70
2023-02-12T20:12:09.011Z,11.50
2023-02-12T20:14:16.090Z,11.65
2023-02-12T20:16:24.185Z,11.00
2023-02-12T20:18:32.005Z,12.07
2023-02-12T20:20:40.982Z,11.60
2023-02-12T20:22:45.878Z,12.13
2023-02-12T20:24:50.818Z,12.98
2023-02-12T20:26:56.762Z,11.38
2023-02-12T20:29:05.200Z,10.85
2023-02-12T20:31:12.457Z,12.48
2023-02-12T20:33:17.670Z,12.70
2023-02-12T20:35:25.176Z,13.07
2023-02-12T20:37:30.178Z,12.40
2023-02-12T20:39:38.172Z,13.35
2023-02-12T20:41:44.033Z,13.38
2023-02-12T20:43:49.029Z,13.30
2023-02-12T20:45:53.952Z,14.30
2023-02-12T20:47:58.869Z,18.30
2023-02-12T20:50:04.126Z,14.35
2023-02-12T20:52:11.881Z,13.73
2023-02-12T20:54:16.816Z,12.68
2023-02-12T20:56:25.904Z,10.88
2023-02-12T20:58:31.213Z,10.88
2023-02-12T21:00:36.133Z,11.18
2023-02-12T21:02:41.101Z,12.10
2023-02-12T21:04:46.094Z,11.40
2023-02-12T21:06:52.020Z,11.70
2023-02-12T21:08:59.977Z,11.43
2023-02-12T21:11:09.856Z,11.13
2023-02-12T21:13:14.794Z,11.13
2023-02-12T21:15:19.982Z,11.65
2023-02-12T21:17:24.929Z,11.13
2023-02-12T21:19:30.066Z,11.65
2023-02-12T21:21:37.831Z,12.15
2023-02-12T21:23:43.416Z,10.68
2023-02-12T21:25:51.480Z,10.98
2023-02-12T21:27:56.386Z,11.05
2023-02-12T21:30:01.286Z,11.20
2023-02-12T21:32:06.415Z,11.23
2023-02-12T21:34:17.559Z,10.50
2023-02-12T21:36:24.585Z,10.82
2023-02-12T21:38:29.503Z,11.50
2023-02-12T21:42:44.552Z,11.13
2023-02-12T21:44:49.789Z,10.02
2023-02-12T21:46:55.500Z,11.90
2023-02-12T21:49:01.858Z,12.00
2023-02-12T21:51:07.904Z,11.18
2023-02-12T21:53:12.846Z,11.25
2023-02-12T21:55:18.064Z,11.68
2023-02-12T21:57:22.969Z,10.02
2023-02-12T21:59:32.523Z,11.82
2023-02-12T22:01:40.104Z,11.85
2023-02-12T22:03:45.929Z,11.85
2023-02-12T22:05:50.825Z,12.60
2023-02-12T22:07:55.744Z,12.13
2023-02-12T22:10:01.181Z,13.20
2023-02-12T22:12:06.957Z,14.25
2023-02-12T22:14:16.013Z,13.43
2023-02-12T22:16:27.025Z,13.10
2023-02-12T22:18:31.963Z,12.93
2023-02-12T22:20:37.108Z,12.45
2023-02-12T22:22:42.476Z,11.43
2023-02-12T22:24:47.614Z,12.60
2023-02-12T22:26:53.068Z,11.90
2023-02-12T22:29:00.086Z,10.70
2023-02-12T22:31:09.769Z,10.85
2023-02-12T22:33:17.271Z,10.75
2023-02-12T22:35:22.694Z,10.13
2023-02-12T22:37:28.028Z,11.02
2023-02-12T22:39:33.281Z,10.18
2023-02-12T22:41:41.965Z,10.73
2023-02-12T22:43:47.493Z,10.50
2023-02-12T22:45:52.458Z,11.30
2023-02-12T22:47:57.418Z,12.13
2023-02-12T22:50:05.279Z,11.88
2023-02-12T22:52:10.266Z,11.27
2023-02-12T22:54:17.700Z,10.98
2023-02-12T22:56:23.346Z,10.55
2023-02-12T22:58:28.294Z,10.52
2023-02-12T23:00:33.720Z,9.68
2023-02-12T23:02:39.212Z,10.40
2023-02-12T23:04:44.195Z,9.82
2023-02-12T23:06:52.110Z,9.18
2023-02-12T23:09:00.852Z,9.32
2023-02-12T23:11:07.969Z,9.10
2023-02-12T23:13:24.637Z,9.13
2023-02-12T23:15:35.073Z,8.65
2023-02-12T23:17:40.092Z,8.55
2023-02-12T23:19:45.301Z,8.38
2023-02-12T23:21:52.819Z,6.95
2023-02-12T23:23:59.347Z,7.22
2023-02-12T23:26:04.956Z,7.28
2023-02-12T23:28:10.409Z,7.35
2023-02-12T23:30:17.769Z,7.15
2023-02-12T23:32:23.138Z,6.70
2023-02-12T23:34:28.845Z,7.32
2023-02-12T23:36:33.850Z,6.43
2023-02-12T23:38:41.444Z,6.30
2023-02-12T23:40:47.176Z,6.03
2023-02-12T23:42:52.843Z,6.00
2023-02-12T23:44:58.107Z,6.80
2023-02-12T23:47:03.053Z,6.28
2023-02-12T23:49:08.451Z,6.18
2023-02-12T23:51:14.193Z,7.28
2023-02-12T23:53:19.423Z,5.65
2023-02-12T23:55:27.012Z,7.05
2023-02-12T23:57:32.078Z,5.78
2023-02-12T23:59:37.936Z,6.00
